createdAt,value
2018-04-10T00:00:23.589Z,0.00
2018-04-10T00:01:23.559Z,0.00
2018-04-10T00:02:23.558Z,0.00
2018-04-10T00:03:23.532Z,0.00
2018-04-10T00:04:23.514Z,0.00
2018-04-10T00:05:23.500Z,0.00
2018-04-10T00:06:23.485Z,0.00
2018-04-10T00:07:23.470Z,0.00
2018-04-10T00:08:23.491Z,0.00
2018-04-10T00:09:23.457Z,0.00
2018-04-10T00:10:23.417Z,0.00
2018-04-10T00:11:23.426Z,0.00
2018-04-10T00:12:23.408Z,0.00
2018-04-10T00:13:23.377Z,0.00
2018-04-10T00:14:23.357Z,0.00
2018-04-10T00:15:23.333Z,0.00
2018-04-10T00:16:23.315Z,0.00
2018-04-10T00:17:23.330Z,0.00
2018-04-10T00:18:23.288Z,0.00
2018-04-10T00:19:23.275Z,0.00
2018-04-10T00:20:23.274Z,0.00
2018-04-10T00:21:23.237Z,0.00
2018-04-10T00:22:23.246Z,0.00
2018-04-10T00:23:23.223Z,0.00
2018-04-10T00:24:23.191Z,0.00
2018-04-10T00:25:23.175Z,0.00
2018-04-10T00:26:23.160Z,0.00
2018-04-10T00:27:23.154Z,0.00
2018-04-10T00:28:23.128Z,0.00
2018-04-10T00:29:23.107Z,0.00
2018-04-10T00:30:23.107Z,0.00
2018-04-10T00:31:23.084Z,0.00
2018-04-10T00:32:23.057Z,0.00
2018-04-10T00:33:23.045Z,0.00
2018-04-10T00:34:23.016Z,0.00
2018-04-10T00:35:23.001Z,0.00
2018-04-10T00:36:23.005Z,0.00
2018-04-10T00:37:22.968Z,0.00
2018-04-10T00:38:22.989Z,0.00
2018-04-10T00:39:22.966Z,0.00
2018-04-10T00:40:22.940Z,0.00
2018-04-10T00:41:22.901Z,0.00
2018-04-10T00:42:22.896Z,0.00
2018-04-10T00:43:22.895Z,0.00
2018-04-10T00:44:22.856Z,0.00
2018-04-10T00:45:22.868Z,0.00
2018-04-10T00:46:22.816Z,0.00
2018-04-10T00:47:22.804Z,0.00
2018-04-10T00:48:22.788Z,0.00
2018-04-10T00:49:22.800Z,0.00
2018-04-10T00:50:22.760Z,0.00
2018-04-10T00:51:22.738Z,0.00
2018-04-10T00:52:22.716Z,0.00
2018-04-10T00:53:22.705Z,0.00
2018-04-10T00:54:22.712Z,0.00
2018-04-10T00:55:22.668Z,0.00
2018-04-10T00:56:22.685Z,0.00
2018-04-10T00:57:22.642Z,0.00
2018-04-10T00:58:22.628Z,0.00
2018-04-10T00:59:22.613Z,0.00
2018-04-10T01:00:22.593Z,0.00
2018-04-10T01:01:22.565Z,0.00
2018-04-10T01:02:22.550Z,0.00
2018-04-10T01:03:22.533Z,0.00
2018-04-10T01:04:22.541Z,0.00
2018-04-10T01:05:22.505Z,0.00
2018-04-10T01:06:22.508Z,0.00
2018-04-10T01:07:22.477Z,0.00
2018-04-10T01:08:22.476Z,0.00
2018-04-10T01:09:22.448Z,0.00
2018-04-10T01:10:22.457Z,0.00
2018-04-10T01:11:22.401Z,0.00
2018-04-10T01:12:22.409Z,0.00
2018-04-10T01:13:22.399Z,0.00
2018-04-10T01:14:22.399Z,0.00
2018-04-10T01:15:22.332Z,0.00
2018-04-10T01:16:22.338Z,0.00
2018-04-10T01:17:22.299Z,0.00
2018-04-10T01:18:22.297Z,0.00
2018-04-10T01:19:22.267Z,0.00
2018-04-10T01:20:22.248Z,0.00
2018-04-10T01:21:22.226Z,0.00
2018-04-10T01:22:22.218Z,0.00
2018-04-10T01:23:22.195Z,0.00
2018-04-10T01:24:22.208Z,0.00
2018-04-10T01:25:22.160Z,0.00
2018-04-10T01:26:22.171Z,0.00
2018-04-10T01:27:22.128Z,0.00
2018-04-10T01:28:22.117Z,0.00
2018-04-10T01:29:22.098Z,0.00
2018-04-10T01:30:22.078Z,0.00
2018-04-10T01:31:22.072Z,0.00
2018-04-10T01:32:22.067Z,0.00
2018-04-10T01:33:22.052Z,0.00
2018-04-10T01:34:22.033Z,0.00
2018-04-10T01:35:21.991Z,0.00
2018-04-10T01:36:22.011Z,0.00
2018-04-10T01:37:21.975Z,0.00
2018-04-10T01:38:21.948Z,0.00
2018-04-10T01:39:21.947Z,0.00
2018-04-10T01:40:21.910Z,0.00
2018-04-10T01:41:21.902Z,0.00
2018-04-10T01:42:21.881Z,0.00
2018-04-10T01:43:21.876Z,0.00
2018-04-10T01:44:21.843Z,0.00
2018-04-10T01:45:21.831Z,0.00
2018-04-10T01:46:21.800Z,0.00
2018-04-10T01:47:21.801Z,0.00
2018-04-10T01:48:21.772Z,0.00
2018-04-10T01:49:21.748Z,0.00
2018-04-10T01:50:21.740Z,0.00
2018-04-10T01:51:21.712Z,0.00
2018-04-10T01:52:21.695Z,0.00
2018-04-10T01:53:21.678Z,0.00
2018-04-10T01:54:21.667Z,0.00
2018-04-10T01:55:21.648Z,0.00
2018-04-10T01:56:21.634Z,0.00
2018-04-10T01:57:21.615Z,0.00
2018-04-10T01:58:21.599Z,0.00
2018-04-10T01:59:21.586Z,0.00
2018-04-10T02:00:21.563Z,0.00
2018-04-10T02:01:21.548Z,0.00
2018-04-10T02:02:21.535Z,0.00
2018-04-10T02:03:21.519Z,0.00
2018-04-10T02:04:21.500Z,0.00
2018-04-10T02:05:21.530Z,0.00
2018-04-10T02:06:21.457Z,0.00
2018-04-10T02:07:21.463Z,0.00
2018-04-10T02:08:21.434Z,0.00
2018-04-10T02:09:21.413Z,0.00
2018-04-10T02:10:21.422Z,0.00
2018-04-10T02:11:21.401Z,0.00
2018-04-10T02:12:21.391Z,0.00
2018-04-10T02:13:21.349Z,0.00
2018-04-10T02:14:21.316Z,0.00
2018-04-10T02:15:21.308Z,0.00
2018-04-10T02:16:21.284Z,0.00
2018-04-10T02:17:21.267Z,0.00
2018-04-10T02:18:21.268Z,0.00
2018-04-10T02:19:21.238Z,0.00
2018-04-10T02:20:21.227Z,0.00
2018-04-10T02:21:21.225Z,0.00
2018-04-10T02:22:21.182Z,0.00
2018-04-10T02:23:21.182Z,0.00
2018-04-10T02:24:21.160Z,0.00
2018-04-10T02:25:21.142Z,0.00
2018-04-10T02:26:21.112Z,0.00
2018-04-10T02:27:21.096Z,0.00
2018-04-10T02:28:21.106Z,0.00
2018-04-10T02:29:21.088Z,0.00
2018-04-10T02:30:21.045Z,0.00
2018-04-10T02:31:21.042Z,0.00
2018-04-10T02:32:21.015Z,0.00
2018-04-10T02:33:21.005Z,0.00
2018-04-10T02:34:20.993Z,0.00
2018-04-10T02:35:20.983Z,0.00
2018-04-10T02:36:20.945Z,0.00
2018-04-10T02:37:20.925Z,0.00
2018-04-10T02:38:20.939Z,0.00
2018-04-10T02:39:20.910Z,0.00
2018-04-10T02:40:20.890Z,0.00
2018-04-10T02:41:20.854Z,0.00
2018-04-10T02:42:20.841Z,0.00
2018-04-10T02:43:20.816Z,0.00
2018-04-10T02:44:20.805Z,0.00
2018-04-10T02:45:20.807Z,0.00
2018-04-10T02:46:20.773Z,0.00
2018-04-10T02:47:20.755Z,0.00
2018-04-10T02:48:20.753Z,0.00
2018-04-10T02:49:20.715Z,0.00
2018-04-10T02:50:20.705Z,0.00
2018-04-10T02:51:20.692Z,0.00
2018-04-10T02:52:20.669Z,0.00
2018-04-10T02:53:20.650Z,0.00
2018-04-10T02:54:20.636Z,0.00
2018-04-10T02:55:20.611Z,0.00
2018-04-10T02:56:20.595Z,0.00
2018-04-10T02:57:20.582Z,0.00
2018-04-10T02:58:20.559Z,0.00
2018-04-10T02:59:20.574Z,0.00
2018-04-10T03:00:20.523Z,0.00
2018-04-10T03:01:20.508Z,0.00
2018-04-10T03:02:20.513Z,0.00
2018-04-10T03:03:20.477Z,0.00
2018-04-10T03:04:20.469Z,0.00
2018-04-10T03:05:20.466Z,0.00
2018-04-10T03:06:20.438Z,0.00
2018-04-10T03:07:20.420Z,0.00
2018-04-10T03:08:20.396Z,0.00
2018-04-10T03:09:20.389Z,0.00
2018-04-10T03:10:20.355Z,0.00
2018-04-10T03:11:20.344Z,0.00
2018-04-10T03:12:20.317Z,0.00
2018-04-10T03:13:20.301Z,0.00
2018-04-10T03:14:20.282Z,0.00
2018-04-10T03:15:20.291Z,0.00
2018-04-10T03:16:20.275Z,0.00
2018-04-10T03:17:20.228Z,0.00
2018-04-10T03:18:20.245Z,0.00
2018-04-10T03:19:20.192Z,0.00
2018-04-10T03:20:20.199Z,0.00
2018-04-10T03:21:20.209Z,0.00
2018-04-10T03:22:20.171Z,0.00
2018-04-10T03:23:20.144Z,0.00
2018-04-10T03:24:20.120Z,0.00
2018-04-10T03:25:20.090Z,0.00
2018-04-10T03:26:20.085Z,0.00
2018-04-10T03:27:20.068Z,0.00
2018-04-10T03:28:20.064Z,0.00
2018-04-10T03:29:20.022Z,0.00
2018-04-10T03:30:20.006Z,0.00
2018-04-10T03:31:19.986Z,0.00
2018-04-10T03:32:19.971Z,0.00
2018-04-10T03:33:19.984Z,0.00
2018-04-10T03:34:19.963Z,0.00
2018-04-10T03:35:19.914Z,0.00
2018-04-10T03:36:19.901Z,0.00
2018-04-10T03:37:19.899Z,0.00
2018-04-10T03:38:19.885Z,0.00
2018-04-10T03:39:19.854Z,0.00
2018-04-10T03:40:19.837Z,0.00
2018-04-10T03:41:19.817Z,0.00
2018-04-10T03:42:19.806Z,0.00
2018-04-10T03:43:19.786Z,0.00
2018-04-10T03:44:19.756Z,0.00
2018-04-10T03:45:19.738Z,0.00
2018-04-10T03:46:19.731Z,0.00
2018-04-10T03:47:19.716Z,0.00
2018-04-10T03:48:19.700Z,0.00
2018-04-10T03:49:19.690Z,0.00
2018-04-10T03:50:19.668Z,0.00
2018-04-10T03:51:19.652Z,0.00
2018-04-10T03:52:19.621Z,0.00
2018-04-10T03:53:19.615Z,0.00
2018-04-10T03:54:19.589Z,0.00
2018-04-10T03:55:19.570Z,0.00
2018-04-10T03:56:19.567Z,0.00
2018-04-10T03:57:19.530Z,0.00
2018-04-10T03:58:19.519Z,0.00
2018-04-10T03:59:19.507Z,0.00
2018-04-10T04:00:19.494Z,0.00
2018-04-10T04:01:19.465Z,0.00
2018-04-10T04:02:19.442Z,0.00
2018-04-10T04:03:19.438Z,0.00
2018-04-10T04:04:19.419Z,0.00
2018-04-10T04:05:19.437Z,0.00
2018-04-10T04:06:19.384Z,0.00
2018-04-10T04:07:19.359Z,0.00
2018-04-10T04:08:19.359Z,0.00
2018-04-10T04:09:19.318Z,0.00
2018-04-10T04:10:19.307Z,0.00
2018-04-10T04:11:19.295Z,0.00
2018-04-10T04:12:19.286Z,0.00
2018-04-10T04:13:19.252Z,0.00
2018-04-10T04:14:19.241Z,0.00
2018-04-10T04:15:19.221Z,0.00
2018-04-10T04:16:19.199Z,0.00
2018-04-10T04:17:19.202Z,0.00
2018-04-10T04:18:19.164Z,0.00
2018-04-10T04:19:19.148Z,4.00
2018-04-10T04:20:19.127Z,4.00
2018-04-10T04:21:19.114Z,0.00
2018-04-10T04:22:19.099Z,4.00
2018-04-10T04:23:19.115Z,4.00
2018-04-10T04:24:19.080Z,4.00
2018-04-10T04:25:19.048Z,4.00
2018-04-10T04:26:19.036Z,8.00
2018-04-10T04:27:19.004Z,8.00
2018-04-10T04:28:19.007Z,8.00
2018-04-10T04:29:18.998Z,8.00
2018-04-10T04:30:18.961Z,12.00
2018-04-10T04:31:18.951Z,16.00
2018-04-10T04:32:18.917Z,12.00
2018-04-10T04:33:18.896Z,16.00
2018-04-10T04:34:18.889Z,20.00
2018-04-10T04:35:18.885Z,20.00
2018-04-10T04:36:18.842Z,28.00
2018-04-10T04:37:18.829Z,32.00
2018-04-10T04:38:18.832Z,32.00
2018-04-10T04:39:18.804Z,40.00
2018-04-10T04:40:18.779Z,44.00
2018-04-10T04:41:18.755Z,52.00
2018-04-10T04:42:18.745Z,60.00
2018-04-10T04:43:18.725Z,64.00
2018-04-10T04:44:18.707Z,72.00
2018-04-10T04:45:18.697Z,80.00
2018-04-10T04:46:18.684Z,88.00
2018-04-10T04:47:18.649Z,92.00
2018-04-10T04:48:18.640Z,108.00
2018-04-10T04:49:18.619Z,112.00
2018-04-10T04:50:18.596Z,124.00
2018-04-10T04:51:18.585Z,136.00
2018-04-10T04:52:18.562Z,148.00
2018-04-10T04:53:18.578Z,160.00
2018-04-10T04:54:18.529Z,176.00
2018-04-10T04:55:18.507Z,196.00
2018-04-10T04:56:18.491Z,216.00
2018-04-10T04:57:18.491Z,240.00
2018-04-10T04:58:18.459Z,264.00
2018-04-10T04:59:18.438Z,288.00
2018-04-10T05:00:18.430Z,316.00
2018-04-10T05:01:18.402Z,348.00
2018-04-10T05:02:18.387Z,384.00
2018-04-10T05:03:18.370Z,416.00
2018-04-10T05:04:18.381Z,452.00
2018-04-10T05:05:18.355Z,484.00
2018-04-10T05:06:18.326Z,520.00
2018-04-10T05:07:18.300Z,556.00
2018-04-10T05:08:18.279Z,596.00
2018-04-10T05:09:18.264Z,644.00
2018-04-10T05:10:18.241Z,692.00
2018-04-10T05:11:18.225Z,744.00
2018-04-10T05:12:18.203Z,808.00
2018-04-10T05:13:18.212Z,868.00
2018-04-10T05:14:18.176Z,928.00
2018-04-10T05:15:18.155Z,984.00
2018-04-10T05:16:18.148Z,1040.00
2018-04-10T05:17:18.119Z,1100.00
2018-04-10T05:18:18.127Z,1164.00
2018-04-10T05:19:18.083Z,1232.00
2018-04-10T05:20:18.068Z,1308.00
2018-04-10T05:21:18.055Z,1376.00
2018-04-10T05:22:18.027Z,1440.00
2018-04-10T05:23:18.011Z,1492.00
2018-04-10T05:24:17.992Z,1536.00
2018-04-10T05:25:17.972Z,1576.00
2018-04-10T05:26:17.957Z,1616.00
2018-04-10T05:27:17.950Z,1660.00
2018-04-10T05:28:17.921Z,1716.00
2018-04-10T05:29:17.900Z,1780.00
2018-04-10T05:30:17.888Z,1828.00
2018-04-10T05:31:17.870Z,1860.00
2018-04-10T05:32:17.846Z,1896.00
2018-04-10T05:33:17.833Z,1948.00
2018-04-10T05:34:17.822Z,2012.00
2018-04-10T05:35:17.793Z,2072.00
2018-04-10T05:36:17.778Z,2152.00
2018-04-10T05:37:17.758Z,2228.00
2018-04-10T05:38:17.822Z,2312.00
2018-04-10T05:39:17.732Z,2400.00
2018-04-10T05:40:17.717Z,2468.00
2018-04-10T05:41:17.778Z,2588.00
2018-04-10T05:42:17.696Z,2820.00
2018-04-10T05:43:17.655Z,3196.00
2018-04-10T05:44:17.644Z,3580.00
2018-04-10T05:45:17.626Z,3688.00
2018-04-10T05:46:17.603Z,3608.00
2018-04-10T05:47:17.591Z,3504.00
2018-04-10T05:48:17.581Z,3484.00
2018-04-10T05:49:17.566Z,3448.00
2018-04-10T05:50:17.539Z,3792.00
2018-04-10T05:51:17.522Z,4152.00
2018-04-10T05:52:17.513Z,4216.00
2018-04-10T05:53:17.493Z,4104.00
2018-04-10T05:54:17.471Z,4016.00
2018-04-10T05:55:17.449Z,3948.00
2018-04-10T05:56:17.427Z,3720.00
2018-04-10T05:57:17.413Z,3668.00
2018-04-10T05:58:17.401Z,3912.00
2018-04-10T05:59:17.379Z,3708.00
2018-04-10T06:00:17.366Z,3592.00
2018-04-10T06:01:17.449Z,3724.00
2018-04-10T06:02:17.330Z,3660.00
2018-04-10T06:03:17.469Z,3864.00
2018-04-10T06:04:17.320Z,4072.00
2018-04-10T06:05:17.280Z,4112.00
2018-04-10T06:06:17.260Z,4060.00
2018-04-10T06:07:17.269Z,3992.00
2018-04-10T06:08:17.254Z,4012.00
2018-04-10T06:09:17.248Z,4112.00
2018-04-10T06:10:17.195Z,4000.00
2018-04-10T06:11:17.184Z,3996.00
2018-04-10T06:12:17.161Z,3896.00
2018-04-10T06:13:17.159Z,4332.00
2018-04-10T06:14:17.140Z,4184.00
2018-04-10T06:15:17.109Z,3908.00
2018-04-10T06:16:17.095Z,3764.00
2018-04-10T06:17:17.107Z,4076.00
2018-04-10T06:18:17.076Z,4688.00
2018-04-10T06:19:17.048Z,4708.00
2018-04-10T06:20:17.043Z,4420.00
2018-04-10T06:21:17.014Z,4228.00
2018-04-10T06:22:17.020Z,4364.00
2018-04-10T06:23:16.981Z,4264.00
2018-04-10T06:24:16.974Z,4152.00
2018-04-10T06:25:16.946Z,4136.00
2018-04-10T06:26:16.940Z,4152.00
2018-04-10T06:27:16.920Z,4236.00
2018-04-10T06:28:16.897Z,4340.00
2018-04-10T06:29:16.887Z,4432.00
2018-04-10T06:30:16.876Z,4572.00
2018-04-10T06:31:16.862Z,4664.00
2018-04-10T06:32:16.842Z,4836.00
2018-04-10T06:33:16.820Z,4860.00
2018-04-10T06:34:16.807Z,4824.00
2018-04-10T06:35:17.087Z,4868.00
2018-04-10T06:36:16.778Z,4940.00
2018-04-10T06:37:16.780Z,4952.00
2018-04-10T06:38:16.767Z,4976.00
2018-04-10T06:39:16.722Z,5124.00
2018-04-10T06:40:16.705Z,5208.00
2018-04-10T06:41:16.690Z,5084.00
2018-04-10T06:42:16.682Z,5008.00
2018-04-10T06:43:16.656Z,5012.00
2018-04-10T06:44:16.654Z,5032.00
2018-04-10T06:45:16.628Z,5104.00
2018-04-10T06:46:16.616Z,5168.00
2018-04-10T06:47:16.616Z,5204.00
2018-04-10T06:48:16.599Z,5316.00
2018-04-10T06:49:16.585Z,5496.00
2018-04-10T06:50:16.547Z,5628.00
2018-04-10T06:51:16.550Z,5912.00
2018-04-10T06:52:16.511Z,6288.00
2018-04-10T06:53:16.503Z,6784.00
2018-04-10T06:54:16.488Z,7268.00
2018-04-10T06:55:16.473Z,7988.00
2018-04-10T06:56:16.456Z,8408.00
2018-04-10T06:57:16.463Z,9168.00
2018-04-10T06:58:16.432Z,9156.00
2018-04-10T06:59:16.417Z,10616.00
2018-04-10T07:00:16.397Z,11604.00
2018-04-10T07:01:16.376Z,11636.00
2018-04-10T07:02:16.356Z,11408.00
2018-04-10T07:03:16.358Z,11992.00
2018-04-10T07:04:16.335Z,12804.00
2018-04-10T07:05:16.315Z,15392.00
2018-04-10T07:06:16.306Z,17152.00
2018-04-10T07:07:16.281Z,18688.00
2018-04-10T07:08:16.313Z,21504.00
2018-04-10T07:09:16.249Z,22944.00
2018-04-10T07:10:16.256Z,22304.00
2018-04-10T07:11:16.230Z,21920.00
2018-04-10T07:12:16.204Z,20576.00
2018-04-10T07:13:16.200Z,19936.00
2018-04-10T07:15:38.246Z,12768.00
2018-04-10T07:16:38.227Z,8868.00
2018-04-10T07:18:32.609Z,8116.00
2018-04-10T07:19:32.576Z,7816.00
2018-04-10T07:20:32.548Z,7612.00
2018-04-10T07:21:32.593Z,7460.00
2018-04-10T07:22:32.529Z,7324.00
2018-04-10T07:23:32.514Z,7116.00
2018-04-10T07:24:32.496Z,6832.00
2018-04-10T07:25:32.482Z,6684.00
2018-04-10T07:26:32.479Z,6528.00
2018-04-10T07:27:32.484Z,6340.00
2018-04-10T07:28:32.444Z,6204.00
2018-04-10T07:29:32.436Z,5960.00
2018-04-10T07:30:32.421Z,5908.00
2018-04-10T07:31:32.446Z,5744.00
2018-04-10T07:32:32.410Z,5604.00
2018-04-10T07:33:32.396Z,5508.00
2018-04-10T07:34:32.376Z,5312.00
2018-04-10T07:35:32.359Z,5164.00
2018-04-10T07:36:32.332Z,5108.00
2018-04-10T07:37:32.326Z,5072.00
2018-04-10T07:38:32.312Z,5104.00
2018-04-10T07:39:32.315Z,5116.00
2018-04-10T07:40:32.320Z,5136.00
2018-04-10T07:41:32.280Z,5200.00
2018-04-10T07:42:32.285Z,5344.00
2018-04-10T07:43:32.250Z,5312.00
2018-04-10T07:44:32.226Z,5324.00
2018-04-10T07:45:32.243Z,5440.00
2018-04-10T07:46:32.204Z,5636.00
2018-04-10T07:47:32.189Z,5616.00
2018-04-10T07:48:32.182Z,5540.00
2018-04-10T07:49:32.180Z,5528.00
2018-04-10T07:50:32.161Z,5588.00
2018-04-10T07:51:32.158Z,5636.00
2018-04-10T07:52:32.118Z,5644.00
2018-04-10T07:53:32.105Z,5652.00
2018-04-10T07:54:32.108Z,5648.00
2018-04-10T07:55:32.082Z,5664.00
2018-04-10T07:56:32.081Z,5692.00
2018-04-10T07:57:32.081Z,5676.00
2018-04-10T07:58:32.063Z,5668.00
2018-04-10T07:59:32.023Z,5716.00
2018-04-10T08:00:32.007Z,5844.00
2018-04-10T08:01:31.995Z,6000.00
2018-04-10T08:02:31.986Z,6176.00
2018-04-10T08:03:31.990Z,6372.00
2018-04-10T08:04:31.980Z,6564.00
2018-04-10T08:05:31.964Z,6788.00
2018-04-10T08:06:31.943Z,6964.00
2018-04-10T08:07:31.936Z,7156.00
2018-04-10T08:08:31.925Z,7320.00
2018-04-10T08:09:31.916Z,7444.00
2018-04-10T08:10:31.903Z,7516.00
2018-04-10T08:11:31.855Z,7564.00
2018-04-10T08:12:31.865Z,7592.00
2018-04-10T08:14:55.030Z,7672.00
2018-04-10T08:15:55.010Z,7740.00
2018-04-10T08:16:54.997Z,7828.00
2018-04-10T08:17:54.991Z,7912.00
2018-04-10T08:18:54.983Z,8064.00
2018-04-10T08:19:54.953Z,8236.00
2018-04-10T08:20:54.958Z,8396.00
2018-04-10T08:21:54.935Z,8484.00
2018-04-10T08:22:54.902Z,8556.00
2018-04-10T08:23:54.923Z,8596.00
2018-04-10T08:24:54.885Z,8612.00
2018-04-10T08:25:54.874Z,8660.00
2018-04-10T08:26:54.853Z,8708.00
2018-04-10T08:27:54.847Z,8660.00
2018-04-10T08:28:54.851Z,8612.00
2018-04-10T08:29:54.811Z,8580.00
2018-04-10T08:30:54.801Z,8620.00
2018-04-10T08:31:54.785Z,8744.00
2018-04-10T08:32:54.770Z,8740.00
2018-04-10T08:33:54.793Z,8696.00
2018-04-10T08:34:54.743Z,8652.00
2018-04-10T08:35:54.737Z,8776.00
2018-04-10T08:36:54.739Z,8956.00
2018-04-10T08:37:54.775Z,9172.00
2018-04-10T08:38:54.705Z,9276.00
2018-04-10T08:39:54.734Z,9180.00
2018-04-10T08:40:54.690Z,8976.00
2018-04-10T08:41:54.665Z,8880.00
2018-04-10T08:42:54.642Z,8952.00
2018-04-10T08:43:54.622Z,9228.00
2018-04-10T08:44:54.630Z,9652.00
2018-04-10T08:45:54.599Z,10116.00
2018-04-10T08:46:54.609Z,10472.00
2018-04-10T08:47:54.578Z,10632.00
2018-04-10T08:48:54.558Z,10620.00
2018-04-10T08:49:54.547Z,10284.00
2018-04-10T08:50:54.551Z,10088.00
2018-04-10T08:51:54.701Z,10016.00
2018-04-10T08:52:54.519Z,9872.00
2018-04-10T08:53:54.509Z,9732.00
2018-04-10T08:54:54.491Z,9668.00
2018-04-10T08:55:54.544Z,9908.00
2018-04-10T08:56:54.465Z,10348.00
2018-04-10T08:57:54.470Z,10856.00
2018-04-10T08:58:54.428Z,11224.00
2018-04-10T08:59:54.420Z,11488.00
2018-04-10T09:00:54.442Z,11700.00
2018-04-10T09:01:54.424Z,11708.00
2018-04-10T09:02:54.425Z,11656.00
2018-04-10T09:03:54.369Z,11604.00
2018-04-10T09:04:54.395Z,11532.00
2018-04-10T09:05:54.343Z,11460.00
2018-04-10T09:06:54.360Z,11316.00
2018-04-10T09:07:54.326Z,11008.00
2018-04-10T09:08:54.310Z,10540.00
2018-04-10T09:09:54.338Z,10244.00
2018-04-10T09:10:54.283Z,10100.00
2018-04-10T09:11:54.268Z,10000.00
2018-04-10T09:12:54.268Z,9852.00
2018-04-10T09:13:54.268Z,9720.00
2018-04-10T09:14:54.238Z,9696.00
2018-04-10T09:15:54.248Z,9816.00
2018-04-10T09:16:54.241Z,10220.00
2018-04-10T09:17:54.239Z,10656.00
2018-04-10T09:18:54.190Z,10876.00
2018-04-10T09:19:54.195Z,10876.00
2018-04-10T09:20:54.164Z,10764.00
2018-04-10T09:21:54.152Z,10640.00
2018-04-10T09:22:54.146Z,10640.00
2018-04-10T09:23:54.131Z,10872.00
2018-04-10T09:24:54.140Z,11160.00
2018-04-10T09:25:54.142Z,11268.00
2018-04-10T09:26:54.121Z,11248.00
2018-04-10T09:27:54.113Z,11196.00
2018-04-10T09:28:54.072Z,11176.00
2018-04-10T09:29:54.064Z,11068.00
2018-04-10T09:30:54.095Z,10952.00
2018-04-10T09:31:54.041Z,10892.00
2018-04-10T09:32:54.028Z,10868.00
2018-04-10T09:33:54.013Z,10888.00
2018-04-10T09:34:54.015Z,10948.00
2018-04-10T09:35:54.008Z,11092.00
2018-04-10T09:36:54.010Z,11100.00
2018-04-10T09:37:53.988Z,10964.00
2018-04-10T09:38:53.960Z,10736.00
2018-04-10T09:39:53.971Z,10368.00
2018-04-10T09:40:53.959Z,10016.00
2018-04-10T09:41:53.961Z,10024.00
2018-04-10T09:42:53.946Z,10320.00
2018-04-10T09:43:53.901Z,10692.00
2018-04-10T09:44:53.916Z,11044.00
2018-04-10T09:45:53.927Z,11264.00
2018-04-10T09:46:53.867Z,11364.00
2018-04-10T09:47:53.877Z,11404.00
2018-04-10T09:48:53.888Z,11504.00
2018-04-10T09:49:53.837Z,11548.00
2018-04-10T09:50:53.826Z,11616.00
2018-04-10T09:51:53.860Z,11688.00
2018-04-10T09:52:53.824Z,11748.00
2018-04-10T09:53:53.798Z,11752.00
2018-04-10T09:54:53.804Z,11648.00
2018-04-10T09:55:53.809Z,11688.00
2018-04-10T09:56:53.775Z,11708.00
2018-04-10T09:57:53.752Z,11404.00
2018-04-10T09:58:53.785Z,11024.00
2018-04-10T09:59:53.730Z,10900.00
2018-04-10T10:00:53.719Z,11024.00
2018-04-10T10:01:53.710Z,10984.00
2018-04-10T10:02:53.699Z,10656.00
2018-04-10T10:03:53.718Z,10248.00
2018-04-10T10:04:53.675Z,9824.00
2018-04-10T10:05:53.665Z,9620.00
2018-04-10T10:06:53.676Z,9636.00
2018-04-10T10:07:53.652Z,9672.00
2018-04-10T10:08:53.627Z,9736.00
2018-04-10T10:09:53.649Z,9720.00
2018-04-10T10:10:53.626Z,9756.00
2018-04-10T10:11:53.609Z,9876.00
2018-04-10T10:12:53.640Z,10088.00
2018-04-10T10:13:53.579Z,10344.00
2018-04-10T10:14:53.568Z,10404.00
2018-04-10T10:15:53.558Z,10184.00
2018-04-10T10:16:53.550Z,9896.00
2018-04-10T10:17:53.539Z,9536.00
2018-04-10T10:18:53.528Z,9292.00
2018-04-10T10:19:53.522Z,9292.00
2018-04-10T10:20:53.515Z,9408.00
2018-04-10T10:21:53.510Z,9524.00
2018-04-10T10:22:53.488Z,9668.00
2018-04-10T10:23:53.476Z,9764.00
2018-04-10T10:24:53.484Z,9844.00
2018-04-10T10:25:53.494Z,9920.00
2018-04-10T10:26:53.446Z,10140.00
2018-04-10T10:27:53.434Z,10476.00
2018-04-10T10:28:53.447Z,10808.00
2018-04-10T10:29:53.407Z,10988.00
2018-04-10T10:30:53.405Z,11332.00
2018-04-10T10:31:53.410Z,11532.00
2018-04-10T10:32:53.415Z,11584.00
2018-04-10T10:33:53.381Z,11748.00
2018-04-10T10:34:53.382Z,12048.00
2018-04-10T10:35:53.376Z,12392.00
2018-04-10T10:36:53.332Z,12816.00
2018-04-10T10:37:53.347Z,12936.00
2018-04-10T10:38:53.308Z,12656.00
2018-04-10T10:39:53.299Z,12212.00
2018-04-10T10:40:53.295Z,11872.00
2018-04-10T10:41:53.302Z,11628.00
2018-04-10T10:42:53.275Z,11612.00
2018-04-10T10:43:53.269Z,11628.00
2018-04-10T10:44:53.246Z,11532.00
2018-04-10T10:45:53.278Z,11236.00
2018-04-10T10:46:53.245Z,10976.00
2018-04-10T10:47:53.221Z,10932.00
2018-04-10T10:48:53.245Z,11064.00
2018-04-10T10:49:53.198Z,11224.00
2018-04-10T10:50:53.204Z,11300.00
2018-04-10T10:51:53.216Z,11344.00
2018-04-10T10:52:53.235Z,11248.00
2018-04-10T10:53:53.212Z,10972.00
2018-04-10T10:54:53.179Z,10664.00
2018-04-10T10:55:53.201Z,10328.00
2018-04-10T10:56:53.172Z,10080.00
2018-04-10T10:57:53.168Z,9820.00
2018-04-10T10:58:53.160Z,9636.00
2018-04-10T10:59:53.157Z,9532.00
2018-04-10T11:00:53.166Z,9500.00
2018-04-10T11:01:53.098Z,9328.00
2018-04-10T11:02:53.062Z,9172.00
2018-04-10T11:03:53.082Z,9016.00
2018-04-10T11:04:53.045Z,8832.00
2018-04-10T11:05:53.056Z,8780.00
2018-04-10T11:06:53.056Z,8812.00
2018-04-10T11:07:53.104Z,8900.00
2018-04-10T11:08:53.028Z,9040.00
2018-04-10T11:09:52.998Z,9092.00
2018-04-10T11:10:53.006Z,9012.00
2018-04-10T11:11:52.991Z,8964.00
2018-04-10T11:12:53.027Z,8956.00
2018-04-10T11:13:52.965Z,9040.00
2018-04-10T11:16:15.025Z,9208.00
2018-04-10T11:17:14.996Z,9176.00
2018-04-10T11:19:09.406Z,9456.00
2018-04-10T11:20:09.389Z,9692.00
2018-04-10T11:21:09.349Z,9908.00
2018-04-10T11:22:09.348Z,10140.00
2018-04-10T11:23:09.336Z,10268.00
2018-04-10T11:24:09.364Z,10340.00
2018-04-10T11:25:09.312Z,10424.00
2018-04-10T11:26:09.316Z,10512.00
2018-04-10T11:27:09.291Z,10548.00
2018-04-10T11:28:09.283Z,10608.00
2018-04-10T11:29:09.297Z,10712.00
2018-04-10T11:30:09.263Z,10788.00
2018-04-10T11:31:09.271Z,10868.00
2018-04-10T11:32:09.240Z,10948.00
2018-04-10T11:33:09.244Z,11032.00
2018-04-10T11:34:09.222Z,11092.00
2018-04-10T11:35:09.223Z,11148.00
2018-04-10T11:36:09.241Z,11232.00
2018-04-10T11:37:09.212Z,11360.00
2018-04-10T11:38:09.179Z,11496.00
2018-04-10T11:39:09.224Z,11624.00
2018-04-10T11:40:09.162Z,11764.00
2018-04-10T11:41:09.155Z,11932.00
2018-04-10T11:42:09.186Z,12144.00
2018-04-10T11:43:09.160Z,12368.00
2018-04-10T11:44:09.130Z,12532.00
2018-04-10T11:45:09.122Z,12640.00
2018-04-10T11:46:09.120Z,12672.00
2018-04-10T11:47:09.116Z,12656.00
2018-04-10T11:48:09.093Z,12608.00
2018-04-10T11:49:09.101Z,12584.00
2018-04-10T11:50:09.102Z,12612.00
2018-04-10T11:51:09.067Z,12644.00
2018-04-10T11:52:09.054Z,12600.00
2018-04-10T11:53:09.055Z,12564.00
2018-04-10T11:54:09.058Z,12564.00
2018-04-10T11:55:09.020Z,12588.00
2018-04-10T11:56:09.023Z,12600.00
2018-04-10T11:57:09.038Z,12616.00
2018-04-10T11:58:08.991Z,12692.00
2018-04-10T11:59:09.036Z,12776.00
2018-04-10T12:00:09.013Z,12824.00
2018-04-10T12:01:09.015Z,12800.00
2018-04-10T12:02:08.993Z,12628.00
2018-04-10T12:03:08.951Z,12484.00
2018-04-10T12:04:08.958Z,12280.00
2018-04-10T12:05:08.931Z,12004.00
2018-04-10T12:06:08.930Z,11756.00
2018-04-10T12:07:08.948Z,11608.00
2018-04-10T12:08:08.916Z,11580.00
2018-04-10T12:09:08.918Z,11752.00
2018-04-10T12:10:08.880Z,11912.00
2018-04-10T12:11:08.879Z,12060.00
2018-04-10T12:12:08.875Z,12232.00
2018-04-10T12:13:08.859Z,12436.00
2018-04-10T12:14:08.947Z,12656.00
2018-04-10T12:15:08.859Z,12880.00
2018-04-10T12:16:08.872Z,13064.00
2018-04-10T12:17:08.822Z,13176.00
2018-04-10T12:18:08.814Z,13204.00
2018-04-10T12:19:08.923Z,13208.00
2018-04-10T12:20:08.799Z,13160.00
2018-04-10T12:21:08.801Z,13092.00
2018-04-10T12:22:08.779Z,12984.00
2018-04-10T12:23:08.831Z,12804.00
2018-04-10T12:24:08.765Z,12580.00
2018-04-10T12:25:08.753Z,12328.00
2018-04-10T12:26:08.870Z,12020.00
2018-04-10T12:27:08.747Z,11592.00
2018-04-10T12:28:08.848Z,11372.00
2018-04-10T12:29:08.714Z,11224.00
2018-04-10T12:30:08.706Z,11124.00
2018-04-10T12:31:08.694Z,10988.00
2018-04-10T12:32:08.739Z,10748.00